createdAt,value
2023-07-16T00:02:22.095Z,97173.19
2023-07-16T00:04:48.735Z,97178.00
2023-07-16T00:07:15.273Z,97177.13
2023-07-16T00:09:41.827Z,97176.34
2023-07-16T00:12:08.431Z,97182.28
2023-07-16T00:14:35.037Z,97187.47
2023-07-16T00:17:01.641Z,97182.28
2023-07-16T00:19:28.194Z,97195.53
2023-07-16T00:21:54.724Z,97188.53
2023-07-16T00:24:21.238Z,97187.75
2023-07-16T00:26:47.730Z,97192.63
2023-07-16T00:29:14.363Z,97185.47
2023-07-16T00:31:40.868Z,97173.78
2023-07-16T00:34:07.480Z,97152.16
2023-07-16T00:36:34.055Z,97148.38
2023-07-16T00:39:00.632Z,97136.19
2023-07-16T00:41:27.201Z,97145.16
2023-07-16T00:43:53.736Z,97134.22
2023-07-16T00:46:20.440Z,97140.94
2023-07-16T00:48:47.001Z,97150.97
2023-07-16T00:51:13.699Z,97150.63
2023-07-16T00:53:40.270Z,97159.63
2023-07-16T00:56:06.853Z,97167.38
2023-07-16T00:58:33.438Z,97174.06
2023-07-16T01:01:00.046Z,97171.94
2023-07-16T01:03:26.597Z,97159.31
2023-07-16T01:05:53.181Z,97165.56
2023-07-16T01:08:19.713Z,97174.22
2023-07-16T01:10:46.194Z,97191.41
2023-07-16T01:13:12.698Z,97185.47
2023-07-16T01:15:39.213Z,97194.44
2023-07-16T01:18:05.828Z,97196.72
2023-07-16T01:20:32.379Z,97194.91
2023-07-16T01:22:59.000Z,97187.47
2023-07-16T01:25:25.540Z,97184.72
2023-07-16T01:27:52.077Z,97189.72
2023-07-16T01:30:18.616Z,97191.25
2023-07-16T01:32:45.161Z,97178.00
2023-07-16T01:35:11.733Z,97169.50
2023-07-16T01:37:38.453Z,97167.97
2023-07-16T01:40:04.919Z,97165.25
2023-07-16T01:42:31.511Z,97162.06
2023-07-16T01:44:58.089Z,97157.03
2023-07-16T01:47:24.722Z,97162.06
2023-07-16T01:49:51.257Z,97172.53
2023-07-16T01:52:17.778Z,97167.97
2023-07-16T01:54:44.329Z,97164.47
2023-07-16T01:57:10.822Z,97176.19
2023-07-16T01:59:37.404Z,97167.97
2023-07-16T02:02:04.002Z,97164.78
2023-07-16T02:04:30.521Z,97163.72
2023-07-16T02:06:57.027Z,97165.69
2023-07-16T02:09:23.636Z,97154.75
2023-07-16T02:11:50.175Z,97161.44
2023-07-16T02:14:16.638Z,97159.91
2023-07-16T02:16:43.279Z,97160.38
2023-07-16T02:19:09.929Z,97161.88
2023-07-16T02:21:36.485Z,97164.91
2023-07-16T02:24:02.981Z,97173.72
2023-07-16T02:26:29.567Z,97171.91
2023-07-16T02:28:56.157Z,97181.63
2023-07-16T02:31:22.716Z,97189.84
2023-07-16T02:33:49.208Z,97191.06
2023-07-16T02:36:16.018Z,97183.47
2023-07-16T02:38:42.771Z,97182.84
2023-07-16T02:41:09.314Z,97171.63
2023-07-16T02:43:35.857Z,97177.88
2023-07-16T02:46:02.382Z,97184.56
2023-07-16T02:48:29.013Z,97182.56
2023-07-16T02:50:55.535Z,97192.28
2023-07-16T02:53:22.049Z,97196.38
2023-07-16T02:55:48.603Z,97188.94
2023-07-16T02:58:15.166Z,97203.25
2023-07-16T03:00:41.825Z,97203.72
2023-07-16T03:03:08.489Z,97206.88
2023-07-16T03:05:35.103Z,97202.63
2023-07-16T03:08:01.702Z,97200.22
2023-07-16T03:10:28.288Z,97211.16
2023-07-16T03:12:54.881Z,97203.25
2023-07-16T03:15:21.423Z,97215.72
2023-07-16T03:17:48.026Z,97218.91
2023-07-16T03:20:14.594Z,97226.97
2023-07-16T03:22:41.164Z,97218.28
2023-07-16T03:25:07.734Z,97204.47
2023-07-16T03:27:34.211Z,97200.22
2023-07-16T03:30:00.798Z,97191.56
2023-07-16T03:32:31.808Z,97185.31
2023-07-16T03:35:05.119Z,97176.78
2023-07-16T03:37:31.647Z,97175.56
2023-07-16T03:39:58.239Z,97181.06
2023-07-16T03:42:24.732Z,97178.59
2023-07-16T03:44:51.324Z,97161.88
2023-07-16T03:47:17.903Z,97166.91
2023-07-16T03:49:44.472Z,97148.50
2023-07-16T03:52:11.003Z,97153.97
2023-07-16T03:54:37.545Z,97152.47
2023-07-16T03:57:04.108Z,97163.09
2023-07-16T03:59:30.655Z,97158.22
2023-07-16T04:01:57.288Z,97170.25
2023-07-16T04:04:23.757Z,97176.47
2023-07-16T04:06:50.309Z,97171.47
2023-07-16T04:09:16.825Z,97178.31
2023-07-16T04:11:43.432Z,97177.53
2023-07-16T04:14:09.977Z,97180.28
2023-07-16T04:16:36.572Z,97193.22
2023-07-16T04:19:03.101Z,97182.69
2023-07-16T04:21:29.625Z,97182.56
2023-07-16T04:23:56.316Z,97179.84
2023-07-16T04:26:22.798Z,97185.31
2023-07-16T04:28:49.308Z,97178.31
2023-07-16T04:31:15.974Z,97183.78
2023-07-16T04:33:42.580Z,97181.50
2023-07-16T04:36:09.079Z,97183.16
2023-07-16T04:38:35.590Z,97181.50
2023-07-16T04:41:02.114Z,97186.19
2023-07-16T04:43:28.654Z,97179.06
2023-07-16T04:45:55.143Z,97181.06
2023-07-16T04:48:21.707Z,97185.44
2023-07-16T04:50:48.244Z,97184.66
2023-07-16T04:53:14.844Z,97182.25
2023-07-16T04:55:41.405Z,97194.72
2023-07-16T04:58:07.946Z,97185.44
2023-07-16T05:00:34.485Z,97192.44
2023-07-16T05:03:01.174Z,97193.66
2023-07-16T05:05:27.746Z,97193.97
2023-07-16T05:07:54.275Z,97202.94
2023-07-16T05:10:20.866Z,97218.75
2023-07-16T05:12:47.433Z,97222.38
2023-07-16T05:15:14.040Z,97232.44
2023-07-16T05:17:40.649Z,97229.69
2023-07-16T05:20:07.254Z,97222.69
2023-07-16T05:22:36.892Z,97210.53
2023-07-16T05:25:03.512Z,97229.22
2023-07-16T05:27:30.040Z,97223.75
2023-07-16T05:29:56.565Z,97218.28
2023-07-16T05:32:23.221Z,97214.47
2023-07-16T05:34:49.819Z,97216.00
2023-07-16T05:37:16.325Z,97208.09
2023-07-16T05:39:42.914Z,97206.56
2023-07-16T05:42:09.451Z,97211.16
2023-07-16T05:44:36.005Z,97213.56
2023-07-16T05:47:02.524Z,97205.94
2023-07-16T05:49:29.069Z,97200.03
2023-07-16T05:51:55.598Z,97197.16
2023-07-16T05:54:22.142Z,97198.50
2023-07-16T05:56:48.713Z,97198.81
2023-07-16T05:59:15.354Z,97191.66
2023-07-16T06:01:42.952Z,97194.41
2023-07-16T06:04:09.656Z,97195.63
2023-07-16T06:06:36.261Z,97182.41
2023-07-16T06:09:02.851Z,97199.59
2023-07-16T06:11:29.405Z,97206.56
2023-07-16T06:13:55.892Z,97202.63
2023-07-16T06:16:22.526Z,97212.69
2023-07-16T06:18:49.192Z,97208.59
2023-07-16T06:21:15.780Z,97211.16
2023-07-16T06:23:42.303Z,97213.72
2023-07-16T06:26:08.871Z,97222.88
2023-07-16T06:28:35.429Z,97223.50
2023-07-16T06:31:02.077Z,97231.38
2023-07-16T06:33:28.695Z,97227.56
2023-07-16T06:35:55.245Z,97214.66
2023-07-16T06:38:21.817Z,97216.19
2023-07-16T06:40:48.361Z,97230.59
2023-07-16T06:43:14.893Z,97225.78
2023-07-16T06:45:41.510Z,97235.34
2023-07-16T06:48:08.057Z,97237.31
2023-07-16T06:50:35.901Z,97240.94
2023-07-16T06:53:02.469Z,97249.63
2023-07-16T06:55:29.041Z,97250.25
2023-07-16T06:57:55.571Z,97250.69
2023-07-16T07:00:23.981Z,97238.97
2023-07-16T07:02:50.923Z,97236.09
2023-07-16T07:05:17.526Z,97234.72
2023-07-16T07:07:44.100Z,97238.22
2023-07-16T07:10:10.658Z,97216.03
2023-07-16T07:12:37.213Z,97215.72
2023-07-16T07:15:03.751Z,97211.63
2023-07-16T07:17:30.268Z,97211.50
2023-07-16T07:19:56.887Z,97217.25
2023-07-16T07:22:23.552Z,97215.13
2023-07-16T07:24:50.241Z,97202.03
2023-07-16T07:27:16.778Z,97197.75
2023-07-16T07:29:43.286Z,97205.53
2023-07-16T07:32:09.824Z,97209.44
2023-07-16T07:34:36.336Z,97208.69
2023-07-16T07:37:02.959Z,97216.00
2023-07-16T07:39:29.850Z,97218.91
2023-07-16T07:41:56.392Z,97219.53
2023-07-16T07:44:22.901Z,97218.44
2023-07-16T07:46:49.549Z,97220.31
2023-07-16T07:49:16.093Z,97218.16
2023-07-16T07:51:42.748Z,97209.03
2023-07-16T07:54:09.518Z,97214.84
2023-07-16T07:56:36.130Z,97216.34
2023-07-16T07:59:02.687Z,97211.34
2023-07-16T08:01:29.212Z,97209.34
2023-07-16T08:03:55.937Z,97215.44
2023-07-16T08:06:22.488Z,97212.38
2023-07-16T08:08:49.060Z,97215.44
2023-07-16T08:11:15.636Z,97208.44
2023-07-16T08:13:42.293Z,97209.97
2023-07-16T08:16:08.818Z,97214.06
2023-07-16T08:18:35.418Z,97214.84
2023-07-16T08:21:01.975Z,97215.75
2023-07-16T08:23:28.457Z,97215.44
2023-07-16T08:25:55.015Z,97220.00
2023-07-16T08:28:22.085Z,97224.72
2023-07-16T08:30:48.639Z,97217.44
2023-07-16T08:33:15.165Z,97229.59
2023-07-16T08:35:41.726Z,97225.81
2023-07-16T08:38:08.374Z,97215.91
2023-07-16T08:40:34.970Z,97222.78
2023-07-16T08:43:01.505Z,97228.25
2023-07-16T08:45:28.035Z,97222.00
2023-07-16T08:47:54.638Z,97224.44
2023-07-16T08:50:21.194Z,97222.44
2023-07-16T08:52:47.833Z,97220.34
2023-07-16T08:55:14.347Z,97212.72
2023-07-16T08:57:40.875Z,97216.41
2023-07-16T09:00:07.456Z,97217.63
2023-07-16T09:02:34.153Z,97220.19
2023-07-16T09:05:01.463Z,97213.63
2023-07-16T09:07:28.216Z,97211.81
2023-07-16T09:09:54.846Z,97217.41
2023-07-16T09:12:21.568Z,97219.09
2023-07-16T09:14:48.217Z,97218.81
2023-07-16T09:17:14.747Z,97223.94
2023-07-16T09:19:41.284Z,97223.38
2023-07-16T09:22:10.917Z,97232.06
2023-07-16T09:24:37.474Z,97233.09
2023-07-16T09:27:04.006Z,97233.09
2023-07-16T09:29:30.575Z,97228.06
2023-07-16T09:31:57.193Z,97232.50
2023-07-16T09:34:23.821Z,97234.94
2023-07-16T09:36:50.429Z,97231.31
2023-07-16T09:39:16.989Z,97227.47
2023-07-16T09:41:43.482Z,97225.38
2023-07-16T09:44:10.029Z,97226.28
2023-07-16T09:46:36.631Z,97225.50
2023-07-16T09:49:03.135Z,97228.56
2023-07-16T09:51:29.733Z,97226.09
2023-07-16T09:53:56.337Z,97229.94
2023-07-16T09:56:22.876Z,97229.16
2023-07-16T09:58:49.393Z,97229.94
2023-07-16T10:01:16.088Z,97228.41
2023-07-16T10:03:42.689Z,97219.75
2023-07-16T10:06:09.253Z,97222.78
2023-07-16T10:08:35.792Z,97215.66
2023-07-16T10:11:02.309Z,97215.66
2023-07-16T10:13:28.856Z,97224.63
2023-07-16T10:15:55.491Z,97224.44
2023-07-16T10:18:22.349Z,97218.81
2023-07-16T10:20:48.913Z,97214.88
2023-07-16T10:23:15.490Z,97215.16
2023-07-16T10:25:42.274Z,97215.16
2023-07-16T10:28:08.820Z,97214.56
2023-07-16T10:30:35.354Z,97220.03
2023-07-16T10:33:01.946Z,97213.34
2023-07-16T10:35:28.498Z,97220.03
2023-07-16T10:37:55.097Z,97225.06
2023-07-16T10:40:21.639Z,97216.84
2023-07-16T10:42:48.232Z,97211.81
2023-07-16T10:45:14.761Z,97211.06
2023-07-16T10:47:41.274Z,97215.16
2023-07-16T10:50:07.872Z,97217.88
2023-07-16T10:52:34.427Z,97215.75
2023-07-16T10:55:00.999Z,97211.81
2023-07-16T10:57:27.640Z,97213.03
2023-07-16T10:59:54.246Z,97211.22
2023-07-16T11:02:20.835Z,97208.16
2023-07-16T11:04:47.339Z,97211.22
2023-07-16T11:07:13.892Z,97200.56
2023-07-16T11:09:40.482Z,97197.53
2023-07-16T11:12:07.013Z,97196.31
2023-07-16T11:14:33.551Z,97191.44
2023-07-16T11:17:00.076Z,97193.88
2023-07-16T11:19:26.617Z,97188.97
2023-07-16T11:21:53.187Z,97197.97
2023-07-16T11:24:19.775Z,97194.16
2023-07-16T11:26:46.293Z,97183.97
2023-07-16T11:29:12.857Z,97185.50
2023-07-16T11:31:39.507Z,97184.75
2023-07-16T11:34:06.066Z,97181.69
2023-07-16T11:36:32.569Z,97171.66
2023-07-16T11:38:59.149Z,97175.28
2023-07-16T11:41:25.691Z,97170.75
2023-07-16T11:43:52.268Z,97168.63
2023-07-16T11:46:19.429Z,97162.84
2023-07-16T11:48:46.250Z,97162.84
2023-07-16T11:51:12.767Z,97159.63
2023-07-16T11:53:40.161Z,97148.69
2023-07-16T11:56:07.039Z,97140.03
2023-07-16T11:58:33.597Z,97137.28
2023-07-16T12:01:00.233Z,97130.59
2023-07-16T12:03:27.046Z,97130.59
2023-07-16T12:05:54.503Z,97123.91
2023-07-16T12:08:21.155Z,97130.28
2023-07-16T12:10:47.692Z,97119.34
2023-07-16T12:13:14.210Z,97127.53
2023-07-16T12:15:40.775Z,97118.28
2023-07-16T12:18:07.393Z,97120.69
2023-07-16T12:20:33.965Z,97126.34
2023-07-16T12:23:00.537Z,97127.41
2023-07-16T12:25:27.073Z,97120.09
2023-07-16T12:27:56.036Z,97117.19
2023-07-16T12:30:22.915Z,97121.19
2023-07-16T12:32:49.571Z,97107.63
2023-07-16T12:35:16.120Z,97112.03
2023-07-16T12:37:42.694Z,97104.13
2023-07-16T12:40:09.257Z,97099.88
2023-07-16T12:42:35.799Z,97099.28
2023-07-16T12:45:02.322Z,97109.16
2023-07-16T12:47:28.855Z,97093.94
2023-07-16T12:49:55.453Z,97102.00
2023-07-16T12:52:21.977Z,97095.91
2023-07-16T12:54:48.558Z,97106.41
2023-07-16T12:57:15.046Z,97102.91
2023-07-16T12:59:41.599Z,97105.53
2023-07-16T13:02:08.174Z,97106.56
2023-07-16T13:04:34.766Z,97105.66
2023-07-16T13:07:01.355Z,97105.03
2023-07-16T13:09:27.966Z,97112.38
2023-07-16T13:11:54.472Z,97106.72
2023-07-16T13:14:21.024Z,97100.50
2023-07-16T13:16:47.636Z,97109.03
2023-07-16T13:19:14.214Z,97106.91
2023-07-16T13:21:40.779Z,97099.56
2023-07-16T13:24:07.360Z,97098.19
2023-07-16T13:26:33.947Z,97094.41
2023-07-16T13:29:00.527Z,97086.19
2023-07-16T13:31:27.272Z,97079.19
2023-07-16T13:33:53.930Z,97080.28
2023-07-16T13:36:20.498Z,97078.44
2023-07-16T13:38:47.115Z,97075.69
2023-07-16T13:41:13.738Z,97081.16
2023-07-16T13:43:40.337Z,97090.00
2023-07-16T13:46:06.987Z,97082.69
2023-07-16T13:48:44.126Z,97089.25
2023-07-16T13:51:20.129Z,97085.75
2023-07-16T13:53:46.702Z,97093.66
2023-07-16T13:56:13.366Z,97083.13
2023-07-16T13:58:40.051Z,97088.16
2023-07-16T14:01:06.624Z,97084.22
2023-07-16T14:03:33.256Z,97089.25
2023-07-16T14:05:59.853Z,97083.78
2023-07-16T14:08:26.452Z,97086.81
2023-07-16T14:10:52.989Z,97080.41
2023-07-16T14:13:19.597Z,97081.94
2023-07-16T14:15:46.179Z,97078.28
2023-07-16T14:18:12.741Z,97083.47
2023-07-16T14:20:39.496Z,97079.78
2023-07-16T14:23:06.097Z,97082.53
2023-07-16T14:25:32.676Z,97079.50
2023-07-16T14:27:59.240Z,97077.69
2023-07-16T14:30:25.747Z,97078.59
2023-07-16T14:32:52.350Z,97079.78
2023-07-16T14:35:30.774Z,97082.41
2023-07-16T14:38:03.366Z,97074.63
2023-07-16T14:40:30.967Z,97078.59
2023-07-16T14:42:57.533Z,97079.50
2023-07-16T14:45:24.077Z,97081.47
2023-07-16T14:47:50.656Z,97074.94
2023-07-16T14:50:17.272Z,97076.44
2023-07-16T14:52:43.864Z,97069.63
2023-07-16T14:55:10.391Z,97064.91
2023-07-16T14:57:36.919Z,97060.00
2023-07-16T15:00:04.291Z,97060.34
2023-07-16T15:02:30.864Z,97057.75
2023-07-16T15:04:57.437Z,97057.91
2023-07-16T15:07:24.023Z,97055.78
2023-07-16T15:09:50.575Z,97053.94
2023-07-16T15:12:17.122Z,97050.59
2023-07-16T15:14:43.796Z,97055.00
2023-07-16T15:17:10.359Z,97054.53
2023-07-16T15:19:36.937Z,97056.41
2023-07-16T15:22:03.511Z,97041.44
2023-07-16T15:24:30.034Z,97050.28
2023-07-16T15:26:56.556Z,97043.44
2023-07-16T15:29:23.079Z,97042.53
2023-07-16T15:31:49.636Z,97042.97
2023-07-16T15:34:16.199Z,97042.19
2023-07-16T15:36:42.784Z,97035.50
2023-07-16T15:39:09.364Z,97034.97
2023-07-16T15:41:35.898Z,97045.19
2023-07-16T15:44:02.468Z,97038.81
2023-07-16T15:48:54.971Z,97031.13
2023-07-16T15:51:21.640Z,97035.38
2023-07-16T15:53:48.177Z,97035.22
2023-07-16T15:56:15.011Z,97041.56
2023-07-16T15:58:41.833Z,97035.94
2023-07-16T16:01:08.430Z,97032.59
2023-07-16T16:03:35.077Z,97035.31
2023-07-16T16:06:01.733Z,97035.94
2023-07-16T16:08:28.298Z,97024.81
2023-07-16T16:10:54.852Z,97022.94
2023-07-16T16:13:21.443Z,97026.78
2023-07-16T16:15:48.042Z,97021.88
2023-07-16T16:18:14.738Z,97020.09
2023-07-16T16:20:41.318Z,97028.44
2023-07-16T16:23:08.136Z,97032.13
2023-07-16T16:25:37.815Z,97022.38
2023-07-16T16:28:04.792Z,97032.00
2023-07-16T16:30:31.314Z,97034.88
2023-07-16T16:33:00.079Z,97036.09
2023-07-16T16:35:28.365Z,97043.03
2023-07-16T16:37:54.909Z,97034.03
2023-07-16T16:40:21.479Z,97030.84
2023-07-16T16:42:47.961Z,97028.53
2023-07-16T16:45:14.492Z,97037.91
2023-07-16T16:47:41.221Z,97037.81
2023-07-16T16:50:07.924Z,97036.41
2023-07-16T16:52:34.498Z,97038.53
2023-07-16T16:55:01.015Z,97040.97
2023-07-16T16:57:27.551Z,97034.94
2023-07-16T16:59:54.074Z,97043.47
2023-07-16T17:02:20.641Z,97047.63
2023-07-16T17:04:47.332Z,97042.56
2023-07-16T17:07:13.978Z,97044.88
2023-07-16T17:09:40.532Z,97046.41
2023-07-16T17:12:07.067Z,97048.41
2023-07-16T17:14:33.639Z,97050.56
2023-07-16T17:17:00.301Z,97051.16
2023-07-16T17:19:26.900Z,97044.44
2023-07-16T17:21:53.421Z,97052.97
2023-07-16T17:24:19.915Z,97051.47
2023-07-16T17:26:46.423Z,97053.63
2023-07-16T17:29:13.015Z,97043.56
2023-07-16T17:31:39.684Z,97049.97
2023-07-16T17:34:06.332Z,97046.94
2023-07-16T17:36:32.948Z,97045.25
2023-07-16T17:38:59.514Z,97047.25
2023-07-16T17:41:26.055Z,97048.47
2023-07-16T17:43:52.690Z,97057.59
2023-07-16T17:46:19.519Z,97053.94
2023-07-16T17:48:46.399Z,97061.53
2023-07-16T17:51:12.983Z,97060.78
2023-07-16T17:53:39.525Z,97063.53
2023-07-16T17:56:06.104Z,97056.97
2023-07-16T17:58:32.668Z,97061.25
2023-07-16T18:00:59.410Z,97061.25
2023-07-16T18:03:26.357Z,97060.78
2023-07-16T18:05:53.111Z,97064.28
2023-07-16T18:08:22.450Z,97059.56
2023-07-16T18:10:49.469Z,97066.72
2023-07-16T18:13:16.078Z,97065.81
2023-07-16T18:15:42.702Z,97068.09
2023-07-16T18:18:09.268Z,97070.38
2023-07-16T18:20:36.287Z,97077.25
2023-07-16T18:23:03.317Z,97071.59
2023-07-16T18:25:29.887Z,97075.22
2023-07-16T18:27:56.369Z,97080.44
2023-07-16T18:30:22.984Z,97078.59
2023-07-16T18:32:49.576Z,97087.72
2023-07-16T18:35:16.165Z,97084.69
2023-07-16T18:37:42.766Z,97102.03
2023-07-16T18:40:09.360Z,97095.66
2023-07-16T18:42:35.968Z,97098.53
2023-07-16T18:45:02.594Z,97101.44
2023-07-16T18:47:29.207Z,97102.78
2023-07-16T18:49:55.768Z,97094.59
2023-07-16T18:52:22.400Z,97103.72
2023-07-16T18:54:49.079Z,97109.50
2023-07-16T18:57:15.596Z,97105.22
2023-07-16T18:59:42.165Z,97112.72
2023-07-16T19:02:08.738Z,97109.50
2023-07-16T19:04:35.359Z,97110.56
2023-07-16T19:07:01.973Z,97114.03
2023-07-16T19:09:28.525Z,97113.28
2023-07-16T19:11:55.087Z,97113.75
2023-07-16T19:14:21.672Z,97123.78
2023-07-16T19:16:48.251Z,97123.16
2023-07-16T19:19:14.838Z,97131.22
2023-07-16T19:21:41.497Z,97135.94
2023-07-16T19:24:08.075Z,97140.69
2023-07-16T19:26:34.689Z,97141.56
2023-07-16T19:29:01.222Z,97151.31
2023-07-16T19:31:27.801Z,97142.84
2023-07-16T19:33:54.505Z,97144.63
2023-07-16T19:36:21.519Z,97145.84
2023-07-16T19:38:48.246Z,97144.16
2023-07-16T19:41:14.925Z,97153.75
2023-07-16T19:43:41.529Z,97152.84
2023-07-16T19:46:08.095Z,97156.47
2023-07-16T19:48:34.808Z,97155.75
2023-07-16T19:51:01.493Z,97160.31
2023-07-16T19:53:28.035Z,97169.28
2023-07-16T19:55:54.665Z,97174.91
2023-07-16T19:58:21.214Z,97173.69
2023-07-16T20:00:47.907Z,97174.75
2023-07-16T20:03:14.497Z,97177.66
2023-07-16T20:05:41.214Z,97183.56
2023-07-16T20:08:07.819Z,97191.34
2023-07-16T20:10:34.384Z,97190.59
2023-07-16T20:13:00.958Z,97196.66
2023-07-16T20:15:27.465Z,97195.13
2023-07-16T20:17:54.096Z,97199.84
2023-07-16T20:20:20.688Z,97193.63
2023-07-16T20:22:47.315Z,97200.78
2023-07-16T20:25:13.881Z,97214.00
2023-07-16T20:27:40.481Z,97215.69
2023-07-16T20:30:07.085Z,97206.38
2023-07-16T20:32:33.943Z,97203.97
2023-07-16T20:35:00.527Z,97209.44
2023-07-16T20:37:27.141Z,97210.97
2023-07-16T20:39:53.751Z,97208.66
2023-07-16T20:42:20.320Z,97214.59
2023-07-16T20:44:46.885Z,97202.44
2023-07-16T20:47:13.483Z,97205.66
2023-07-16T20:49:40.052Z,97200.44
2023-07-16T20:52:06.644Z,97206.38
2023-07-16T20:54:33.174Z,97208.22
2023-07-16T20:56:59.723Z,97217.34
2023-07-16T20:59:26.296Z,97213.69
2023-07-16T21:01:52.863Z,97225.88
2023-07-16T21:04:19.490Z,97229.81
2023-07-16T21:06:46.114Z,97239.88
2023-07-16T21:09:12.772Z,97234.09
2023-07-16T21:11:39.344Z,97241.53
2023-07-16T21:14:05.900Z,97240.47
2023-07-16T21:16:32.520Z,97245.47
2023-07-16T21:18:59.139Z,97235.75
2023-07-16T21:21:25.759Z,97226.78
2023-07-16T21:23:52.357Z,97232.56
2023-07-16T21:26:18.929Z,97219.00
2023-07-16T21:28:45.490Z,97223.72
2023-07-16T21:31:12.199Z,97235.88
2023-07-16T21:33:38.823Z,97238.63
2023-07-16T21:36:05.512Z,97245.63
2023-07-16T21:38:32.053Z,97241.06
2023-07-16T21:40:58.672Z,97245.03
2023-07-16T21:43:25.241Z,97243.34
2023-07-16T21:45:51.789Z,97257.78
2023-07-16T21:48:18.326Z,97261.31
2023-07-16T21:50:44.909Z,97271.50
2023-07-16T21:53:11.514Z,97268.75
2023-07-16T21:55:38.094Z,97268.13
2023-07-16T21:58:04.628Z,97267.69
2023-07-16T22:00:31.105Z,97274.81
2023-07-16T22:02:57.662Z,97268.47
2023-07-16T22:05:24.306Z,97274.22
2023-07-16T22:07:50.906Z,97281.22
2023-07-16T22:10:17.496Z,97278.78
2023-07-16T22:12:43.988Z,97285.16
2023-07-16T22:15:10.531Z,97288.50
2023-07-16T22:17:37.134Z,97297.03
2023-07-16T22:20:03.750Z,97307.69
2023-07-16T22:22:30.320Z,97306.03
2023-07-16T22:24:56.872Z,97298.25
2023-07-16T22:27:23.514Z,97298.69
2023-07-16T22:29:50.093Z,97296.44
2023-07-16T22:32:16.729Z,97315.00
2023-07-16T22:34:43.303Z,97318.63
2023-07-16T22:37:09.894Z,97318.63
2023-07-16T22:39:36.431Z,97316.03
2023-07-16T22:42:02.976Z,97317.13
2023-07-16T22:44:29.466Z,97310.41
2023-07-16T22:46:56.075Z,97324.75
2023-07-16T22:49:22.733Z,97336.91
2023-07-16T22:51:49.298Z,97341.19
2023-07-16T22:54:15.821Z,97347.53
2023-07-16T22:56:42.338Z,97340.53
2023-07-16T22:59:08.943Z,97350.88
2023-07-16T23:01:35.500Z,97350.72
2023-07-16T23:04:02.128Z,97348.47
2023-07-16T23:06:28.689Z,97355.75
2023-07-16T23:08:55.223Z,97365.66
2023-07-16T23:11:21.812Z,97356.81
2023-07-16T23:13:48.378Z,97352.41
2023-07-16T23:16:15.034Z,97358.31
2023-07-16T23:18:41.659Z,97371.56
2023-07-16T23:21:08.398Z,97367.31
2023-07-16T23:23:35.218Z,97372.00
2023-07-16T23:26:01.803Z,97379.03
2023-07-16T23:28:28.322Z,97367.31
2023-07-16T23:30:54.935Z,97371.56
2023-07-16T23:33:21.606Z,97373.53
2023-07-16T23:35:48.289Z,97381.47
2023-07-16T23:38:14.893Z,97390.75
2023-07-16T23:40:41.423Z,97390.75
2023-07-16T23:43:07.998Z,97385.25
2023-07-16T23:45:34.509Z,97391.94
2023-07-16T23:48:01.064Z,97389.19
2023-07-16T23:50:27.682Z,97392.09
2023-07-16T23:52:54.238Z,97386.16
2023-07-16T23:55:20.798Z,97389.69
2023-07-16T23:57:47.413Z,97387.38
